Time;durP1;ratioP1;P1;durP2;ratioP2;P2;SDS_P1;SDS_P2;PMS_P1;PMS_P2;Temp;Humidity;BMP_temperature;BMP_pressure;BME280_temperature;BME280_humidity;BME280_pressure;Samples;Min_cycle;Max_cycle;Signal;HPM_P1;HPM_P2
2023/04/15 00:01:18;;;;;;;9.07;5.07;;;;;;;4.47;50.89;101118.81;5032217;28;20107;-70
2023/04/15 00:03:45;;;;;;;7.50;4.22;;;;;;;4.63;50.87;101113.47;5026637;28;20332;-71
2023/04/15 00:06:11;;;;;;;7.57;4.90;;;;;;;4.62;50.31;101114.34;5032411;28;20029;-69
2023/04/15 00:08:36;;;;;;;7.78;4.07;;;;;;;4.57;50.57;101115.28;5030480;28;20064;-69
2023/04/15 00:11:04;;;;;;;7.50;4.75;;;;;;;4.49;50.78;101104.13;5031686;28;20118;-70
2023/04/15 00:13:31;;;;;;;6.50;4.47;;;;;;;4.40;50.96;101105.09;5020187;28;20070;-71
2023/04/15 00:15:57;;;;;;;10.35;5.70;;;;;;;4.40;50.83;101108.53;5032663;28;20029;-71
2023/04/15 00:18:23;;;;;;;6.97;4.80;;;;;;;4.37;51.44;101105.97;5032818;28;20033;-70
2023/04/15 00:20:49;;;;;;;7.82;4.28;;;;;;;4.40;51.37;101105.94;5031893;28;20036;-70
2023/04/15 00:23:17;;;;;;;8.13;4.60;;;;;;;4.34;51.48;101108.63;5015764;28;20066;-71
2023/04/15 00:25:42;;;;;;;10.60;4.05;;;;;;;4.27;51.55;101112.09;5030696;28;20772;-70
2023/04/15 00:28:08;;;;;;;11.15;4.72;;;;;;;4.43;51.33;101108.50;5031439;28;20029;-71
2023/04/15 00:30:33;;;;;;;12.55;5.00;;;;;;;4.43;51.06;101111.09;5013065;28;20044;-71
2023/04/15 00:33:01;;;;;;;10.88;4.53;;;;;;;4.27;51.50;101114.69;5006215;28;20045;-71
2023/04/15 00:35:26;;;;;;;7.82;5.32;;;;;;;4.22;51.97;101100.97;4996994;28;20041;-72
2023/04/15 00:37:52;;;;;;;7.00;4.28;;;;;;;4.16;52.76;101113.94;5010784;28;20067;-72
2023/04/15 00:40:20;;;;;;;7.70;4.35;;;;;;;4.27;52.46;101111.25;5025308;28;20656;-72
2023/04/15 00:42:46;;;;;;;9.98;4.97;;;;;;;4.27;52.23;101122.47;5031148;28;20064;-72
2023/04/15 00:45:12;;;;;;;5.88;3.67;;;;;;;4.31;52.20;101115.53;5015368;28;20029;-70
2023/04/15 00:47:41;;;;;;;10.88;4.95;;;;;;;4.31;52.38;101118.97;5025752;28;20102;-69
2023/04/15 00:50:07;;;;;;;8.07;5.28;;;;;;;4.28;52.82;101119.00;5030785;28;20501;-71
2023/04/15 00:52:33;;;;;;;9.25;5.00;;;;;;;4.11;52.82;101115.72;5013141;28;20070;-71
2023/04/15 00:54:59;;;;;;;9.57;4.90;;;;;;;4.32;52.42;101118.13;5028649;28;20055;-73
2023/04/15 00:57:27;;;;;;;10.70;5.35;;;;;;;4.29;52.84;101102.59;5033228;28;20064;-72
2023/04/15 00:59:54;;;;;;;9.20;4.78;;;;;;;4.32;52.53;101109.47;5021325;28;20083;-70
2023/04/15 01:02:21;;;;;;;8.80;5.35;;;;;;;4.25;52.63;101107.81;5046293;28;20113;-72
2023/04/15 01:04:47;;;;;;;7.43;4.28;;;;;;;4.18;53.48;101109.63;5022276;28;20041;-72
2023/04/15 01:07:12;;;;;;;5.95;4.40;;;;;;;4.37;52.60;101108.56;5022395;28;20082;-72
2023/04/15 01:09:39;;;;;;;8.88;4.75;;;;;;;4.32;52.10;101110.34;5027594;28;20044;-73
2023/04/15 01:12:07;;;;;;;8.70;5.20;;;;;;;4.29;52.18;101106.94;5010139;28;20030;-72
2023/04/15 01:14:33;;;;;;;7.95;4.78;;;;;;;4.17;52.69;101101.00;5014583;28;20032;-71
2023/04/15 01:16:58;;;;;;;9.07;4.57;;;;;;;4.40;52.53;101110.25;5030778;28;20039;-71
2023/04/15 01:19:24;;;;;;;7.60;4.40;;;;;;;4.35;51.89;101109.47;5028691;28;20067;-71
2023/04/15 01:21:49;;;;;;;10.25;5.65;;;;;;;4.24;51.97;101109.56;5013018;28;20626;-71
2023/04/15 01:24:17;;;;;;;7.00;4.63;;;;;;;4.24;52.01;101111.31;5012128;28;20490;-71
2023/04/15 01:26:43;;;;;;;6.90;5.05;;;;;;;4.11;52.15;101106.22;5029941;28;20036;-72
2023/04/15 01:29:09;;;;;;;7.00;3.90;;;;;;;4.06;52.40;101099.41;5024800;28;20516;-72
2023/04/15 01:31:35;;;;;;;5.38;3.63;;;;;;;3.98;52.44;101110.69;5012789;28;20132;-72
2023/04/15 01:34:01;;;;;;;9.93;5.50;;;;;;;4.06;52.40;101109.75;5031249;28;20190;-71
2023/04/15 01:36:29;;;;;;;9.73;4.45;;;;;;;4.04;52.36;101108.91;5031417;28;20694;-72
2023/04/15 01:38:56;;;;;;;7.35;3.78;;;;;;;3.99;53.00;101107.22;5031412;28;20029;-71
2023/04/15 01:41:26;;;;;;;8.77;4.47;;;;;;;4.02;52.90;101111.50;5027898;28;20095;-70
2023/04/15 01:43:52;;;;;;;7.90;4.38;;;;;;;4.16;52.42;101116.53;5028683;28;20553;-72
2023/04/15 01:46:17;;;;;;;10.63;5.00;;;;;;;4.13;52.05;101108.81;5030734;28;20033;-73
2023/04/15 01:48:43;;;;;;;7.47;4.28;;;;;;;4.07;52.34;101104.53;5001203;28;20063;-73
2023/04/15 01:51:11;;;;;;;9.35;5.30;;;;;;;4.03;52.45;101108.06;5024541;28;20059;-72
2023/04/15 01:53:37;;;;;;;5.55;3.33;;;;;;;3.90;52.27;101106.44;5023641;28;20068;-70
2023/04/15 01:56:03;;;;;;;6.95;4.43;;;;;;;3.79;52.78;101099.63;5032289;28;20053;-72
2023/04/15 01:58:28;;;;;;;10.15;4.53;;;;;;;3.73;52.48;101099.66;5023987;28;20402;-71
2023/04/15 02:00:54;;;;;;;5.80;4.35;;;;;;;3.66;52.81;101102.31;5030138;28;20102;-70
2023/04/15 02:03:19;;;;;;;6.72;4.00;;;;;;;3.58;52.63;101105.81;5028957;28;20033;-71
2023/04/15 02:05:44;;;;;;;5.72;3.78;;;;;;;3.55;53.09;101105.81;5023681;28;20056;-69
2023/04/15 02:08:11;;;;;;;6.60;4.03;;;;;;;3.55;53.11;101105.81;5030596;28;20033;-71
2023/04/15 02:10:37;;;;;;;9.02;3.97;;;;;;;3.55;53.40;101111.00;5026898;28;20029;-71
2023/04/15 02:13:04;;;;;;;7.78;4.60;;;;;;;3.73;53.66;101110.00;5029730;28;20108;-72
2023/04/15 02:15:29;;;;;;;7.53;4.82;;;;;;;3.79;53.42;101109.97;5026085;28;20520;-68
2023/04/15 02:17:58;;;;;;;8.60;3.80;;;;;;;3.93;53.49;101102.09;5031914;28;20405;-69
2023/04/15 02:20:23;;;;;;;5.78;3.78;;;;;;;4.02;52.92;101107.16;5018601;28;20071;-74
2023/04/15 02:22:49;;;;;;;5.95;3.75;;;;;;;4.04;53.06;101108.91;5009923;28;20037;-74
2023/04/15 02:25:19;;;;;;;7.25;3.83;;;;;;;4.06;53.12;101102.00;5014511;28;20042;-73
2023/04/15 02:27:44;;;;;;;6.50;4.03;;;;;;;3.98;53.40;101110.69;5007929;28;20034;-73
2023/04/15 02:30:10;;;;;;;5.95;4.20;;;;;;;4.02;53.34;101117.50;5009253;28;20055;-72
2023/04/15 02:32:38;;;;;;;8.80;5.10;;;;;;;4.06;53.56;101107.16;5003172;28;20038;-72
2023/04/15 02:35:06;;;;;;;9.27;4.55;;;;;;;4.10;53.07;101114.03;5012625;28;20116;-72
2023/04/15 02:37:39;;;;;;;5.32;3.47;;;;;;;4.14;53.46;101110.50;4999250;28;20056;-72
2023/04/15 02:40:10;;;;;;;7.10;3.97;;;;;;;4.08;53.54;101108.00;5008069;28;20559;-73
2023/04/15 02:42:37;;;;;;;7.45;3.80;;;;;;;4.17;53.60;101107.91;5009538;28;20099;-74
2023/04/15 02:45:02;;;;;;;8.63;4.40;;;;;;;4.18;53.35;101105.28;4994737;28;20044;-74
2023/04/15 02:47:33;;;;;;;8.77;4.22;;;;;;;4.25;53.71;101115.59;5006125;28;20475;-73
2023/04/15 02:50:00;;;;;;;7.25;4.18;;;;;;;4.25;53.44;101113.84;5009123;28;20072;-74
2023/04/15 02:52:27;;;;;;;10.65;4.80;;;;;;;4.36;53.22;101116.34;5005613;28;20029;-74
2023/04/15 02:54:56;;;;;;;5.85;3.67;;;;;;;4.22;53.70;101124.25;5006502;28;20041;-72
2023/04/15 02:57:22;;;;;;;11.23;4.60;;;;;;;4.55;53.47;101124.78;5007964;28;20038;-73
2023/04/15 02:59:47;;;;;;;10.95;4.80;;;;;;;4.39;53.74;101121.50;5007390;28;20038;-72
2023/04/15 03:02:13;;;;;;;8.20;4.55;;;;;;;4.36;53.40;101117.22;5010262;28;20482;-72
2023/04/15 03:04:38;;;;;;;6.50;3.55;;;;;;;4.35;53.56;101110.31;4987609;28;20048;-73
2023/04/15 03:07:04;;;;;;;8.95;4.85;;;;;;;4.37;53.69;101116.34;5012392;28;20049;-71
2023/04/15 03:09:31;;;;;;;7.03;4.38;;;;;;;4.23;54.41;101120.81;4989438;28;20037;-72
2023/04/15 03:11:58;;;;;;;7.78;4.80;;;;;;;4.16;54.29;101107.06;5008542;28;20033;-70
2023/04/15 03:14:23;;;;;;;6.63;4.10;;;;;;;4.28;54.15;101121.59;4990614;28;20044;-71
2023/04/15 03:16:50;;;;;;;11.25;5.00;;;;;;;4.12;54.38;101120.00;4991559;28;20095;-72
2023/04/15 03:19:16;;;;;;;11.13;5.13;;;;;;;4.11;54.59;101113.13;4999388;28;20098;-70
2023/04/15 03:21:42;;;;;;;9.48;4.75;;;;;;;4.10;54.94;101116.63;5025194;28;20036;-71
2023/04/15 03:24:10;;;;;;;11.15;5.00;;;;;;;4.08;54.58;101119.19;5032523;28;20068;-73
2023/04/15 03:26:35;;;;;;;6.68;3.92;;;;;;;4.11;54.53;101115.72;5009262;28;20068;-74
2023/04/15 03:29:07;;;;;;;9.48;4.35;;;;;;;4.06;54.46;101118.34;5015150;28;20037;-73
2023/04/15 03:31:33;;;;;;;9.48;4.50;;;;;;;4.02;54.77;101121.84;5027028;28;20044;-73
2023/04/15 03:33:58;;;;;;;8.57;4.65;;;;;;;3.92;54.58;101117.63;5027753;28;20136;-72
2023/04/15 03:36:25;;;;;;;9.25;4.45;;;;;;;3.79;55.17;101114.28;5028646;28;20437;-74
2023/04/15 03:38:50;;;;;;;8.02;3.78;;;;;;;3.86;55.08;101113.34;5019541;28;20073;-74
2023/04/15 03:41:16;;;;;;;8.85;3.65;;;;;;;3.74;55.46;101118.63;5030419;28;20064;-75
2023/04/15 03:43:43;;;;;;;7.22;3.65;;;;;;;3.63;55.72;101112.66;5030962;28;20033;-71
2023/04/15 03:46:09;;;;;;;6.15;3.22;;;;;;;3.73;55.40;101116.91;5015520;28;20086;-72
2023/04/15 03:48:35;;;;;;;8.90;3.70;;;;;;;3.84;55.10;101109.06;5025510;28;20892;-74
2023/04/15 03:51:00;;;;;;;5.85;3.35;;;;;;;3.77;55.24;101110.84;5016122;28;20047;-75
2023/04/15 03:53:25;;;;;;;9.38;3.33;;;;;;;3.70;55.51;101109.19;5010552;28;20390;-74
2023/04/15 03:55:51;;;;;;;8.60;3.78;;;;;;;3.78;55.55;101115.13;5027395;28;20689;-72
2023/04/15 03:58:17;;;;;;;6.55;3.80;;;;;;;3.77;55.57;101101.34;5021347;28;20032;-71
2023/04/15 04:00:43;;;;;;;7.95;4.30;;;;;;;3.79;55.61;101106.53;5010807;28;20073;-71
2023/04/15 04:03:08;;;;;;;8.07;3.78;;;;;;;3.73;55.72;101111.72;5031819;28;20115;-73
2023/04/15 04:05:36;;;;;;;10.35;4.18;;;;;;;3.81;55.77;101112.53;5025801;28;21828;-71
2023/04/15 04:08:01;;;;;;;8.55;4.20;;;;;;;3.65;56.68;101116.09;5029719;28;20064;-73
2023/04/15 04:10:27;;;;;;;6.72;4.07;;;;;;;3.75;56.43;101122.91;5025814;28;20084;-73
2023/04/15 04:12:52;;;;;;;9.65;4.82;;;;;;;4.09;55.40;101115.72;5024689;28;20068;-70
2023/04/15 04:15:17;;;;;;;12.80;4.93;;;;;;;4.33;55.32;101126.72;5028649;28;20243;-70
2023/04/15 04:17:43;;;;;;;10.73;4.22;;;;;;;4.14;55.63;101118.28;5032496;28;20044;-71
2023/04/15 04:20:09;;;;;;;10.50;5.93;;;;;;;4.18;55.88;101122.56;5030384;28;20410;-70
2023/04/15 04:22:38;;;;;;;13.05;5.43;;;;;;;4.26;56.60;101125.09;5027596;28;20103;-70
2023/04/15 04:25:04;;;;;;;11.13;5.78;;;;;;;4.38;56.25;101133.56;5033070;28;20048;-70
2023/04/15 04:27:30;;;;;;;10.10;5.20;;;;;;;4.34;56.22;101134.50;5030002;28;20568;-70
2023/04/15 04:29:55;;;;;;;9.57;4.65;;;;;;;4.54;56.05;101121.34;5031105;28;20601;-72
2023/04/15 04:32:20;;;;;;;10.10;4.03;;;;;;;4.49;56.19;101122.25;5026293;28;20035;-72
2023/04/15 04:34:46;;;;;;;8.68;4.18;;;;;;;4.72;55.67;101130.63;5030450;28;20051;-69
2023/04/15 04:37:12;;;;;;;9.18;4.28;;;;;;;4.90;55.09;101126.13;5036395;28;20071;-71
2023/04/15 04:39:38;;;;;;;10.75;5.47;;;;;;;4.61;56.14;101130.75;5026238;28;20055;-71
2023/04/15 04:42:03;;;;;;;6.95;4.30;;;;;;;4.64;55.75;101132.44;5031687;28;20040;-70
2023/04/15 04:44:29;;;;;;;9.55;5.30;;;;;;;4.60;56.00;101135.94;5030893;28;20062;-72
2023/04/15 04:46:54;;;;;;;11.25;5.03;;;;;;;4.67;56.32;101137.56;5028987;28;20114;-69
2023/04/15 04:49:20;;;;;;;11.13;6.40;;;;;;;4.80;55.69;101133.13;5031461;28;20549;-71
2023/04/15 04:51:47;;;;;;;16.05;5.93;;;;;;;4.81;55.88;101130.53;5032044;28;20651;-71
2023/04/15 04:54:12;;;;;;;13.63;5.90;;;;;;;4.89;55.50;101137.38;5022808;28;20353;-69
2023/04/15 04:56:38;;;;;;;9.45;5.10;;;;;;;4.60;56.68;101136.78;5009337;28;20043;-71
2023/04/15 04:59:04;;;;;;;9.68;5.43;;;;;;;4.88;55.57;101136.53;5031261;28;20242;-70
2023/04/15 05:01:29;;;;;;;8.52;4.47;;;;;;;4.70;56.40;101142.75;5028853;28;20064;-68
2023/04/15 05:03:55;;;;;;;9.75;5.57;;;;;;;4.79;55.90;101140.03;5030646;28;20041;-70
2023/04/15 05:06:20;;;;;;;8.38;5.15;;;;;;;5.05;55.33;101137.16;5029265;28;20029;-69
2023/04/15 05:08:47;;;;;;;11.02;5.53;;;;;;;4.87;56.05;101139.09;5024252;28;20067;-72
2023/04/15 05:11:15;;;;;;;10.45;5.47;;;;;;;4.71;56.24;101146.19;5007601;28;20128;-71
2023/04/15 05:13:42;;;;;;;9.13;6.28;;;;;;;5.21;55.02;101143.00;4995892;28;21266;-69
2023/04/15 05:16:08;;;;;;;9.18;5.45;;;;;;;4.96;55.87;101149.38;5025544;28;20568;-74
2023/04/15 05:18:33;;;;;;;7.50;5.25;;;;;;;5.25;55.19;101147.25;5015131;28;20133;-74
2023/04/15 05:20:59;;;;;;;9.45;5.18;;;;;;;4.91;56.05;101146.00;5011528;28;20253;-71
2023/04/15 05:23:25;;;;;;;9.68;5.55;;;;;;;4.78;56.03;101147.81;4992166;28;20538;-73
2023/04/15 05:25:50;;;;;;;8.23;5.18;;;;;;;5.15;55.78;101152.59;5028888;28;20044;-73
2023/04/15 05:28:15;;;;;;;9.82;5.35;;;;;;;4.97;56.44;101151.94;5030155;28;20067;-73
2023/04/15 05:30:41;;;;;;;12.68;5.35;;;;;;;4.84;57.14;101151.19;5023557;28;20040;-73
2023/04/15 05:33:07;;;;;;;12.90;5.75;;;;;;;5.19;55.93;101156.84;5029600;28;20032;-70
2023/04/15 05:35:33;;;;;;;8.15;4.38;;;;;;;5.38;55.64;101157.47;5013967;28;20133;-71
2023/04/15 05:37:59;;;;;;;8.50;3.95;;;;;;;4.93;56.91;101154.59;5002408;28;20044;-75
2023/04/15 05:40:25;;;;;;;9.35;4.10;;;;;;;5.15;56.45;101170.75;5022201;28;20029;-71
2023/04/15 05:42:50;;;;;;;9.90;4.53;;;;;;;4.94;56.32;101164.06;5029151;28;20436;-72
2023/04/15 05:45:16;;;;;;;8.18;3.88;;;;;;;5.08;56.31;101169.97;5012602;28;20569;-74
2023/04/15 05:47:41;;;;;;;8.10;4.07;;;;;;;5.24;55.87;101175.81;5010945;28;20032;-72
2023/04/15 05:50:07;;;;;;;8.98;4.78;;;;;;;5.59;55.14;101174.44;5032021;28;20225;-70
2023/04/15 05:52:35;;;;;;;11.15;5.05;;;;;;;5.43;55.40;101176.41;5021050;28;20033;-70
2023/04/15 05:55:03;;;;;;;10.75;4.30;;;;;;;5.17;56.44;101190.56;5015159;28;20049;-71
2023/04/15 05:57:28;;;;;;;9.57;4.75;;;;;;;5.51;55.33;101184.94;5010459;28;20040;-70
2023/04/15 05:59:56;;;;;;;9.65;4.70;;;;;;;5.56;55.54;101188.31;4997644;28;20044;-71
2023/04/15 06:02:21;;;;;;;7.40;3.47;;;;;;;5.22;56.86;101196.53;4994905;28;20040;-72
2023/04/15 06:04:47;;;;;;;9.73;3.47;;;;;;;5.61;55.87;101190.84;5005063;28;20042;-72
2023/04/15 06:07:12;;;;;;;8.50;4.07;;;;;;;5.63;55.85;101189.94;5010367;28;20033;-71
2023/04/15 06:09:38;;;;;;;8.32;3.58;;;;;;;5.70;55.76;101195.03;5003490;28;20053;-69
2023/04/15 06:12:05;;;;;;;5.97;3.47;;;;;;;5.43;56.06;101199.72;5009904;28;20056;-72
2023/04/15 06:14:31;;;;;;;8.82;3.72;;;;;;;5.73;55.34;101200.22;5007532;28;20383;-71
2023/04/15 06:16:56;;;;;;;7.57;3.80;;;;;;;5.67;55.42;101207.16;4998958;28;20044;-71
2023/04/15 06:19:22;;;;;;;8.00;3.25;;;;;;;5.72;55.47;101203.66;4976259;28;20073;-72
2023/04/15 06:21:47;;;;;;;9.48;3.42;;;;;;;5.30;56.50;101211.13;4999035;28;21315;-72
2023/04/15 06:24:13;;;;;;;9.82;4.32;;;;;;;5.54;55.46;101203.03;5011721;28;20041;-71
2023/04/15 06:26:38;;;;;;;6.13;2.80;;;;;;;5.49;55.78;101206.59;5005656;28;20627;-67
2023/04/15 06:29:03;;;;;;;8.20;3.83;;;;;;;5.54;55.89;101210.81;5010070;28;20478;-71
2023/04/15 06:31:29;;;;;;;10.48;2.83;;;;;;;5.65;55.45;101216.72;5008093;28;20462;-71
2023/04/15 06:33:55;;;;;;;6.38;3.20;;;;;;;5.31;55.96;101231.00;4991179;28;20517;-72
2023/04/15 06:36:20;;;;;;;7.35;3.00;;;;;;;5.65;55.36;101232.28;5009090;28;20086;-73
2023/04/15 06:38:46;;;;;;;7.15;2.85;;;;;;;5.82;54.91;101233.78;5004243;28;20022;-73
2023/04/15 06:41:11;;;;;;;8.23;2.97;;;;;;;5.65;55.49;101232.28;4996295;28;20112;-72
2023/04/15 06:43:37;;;;;;;8.05;3.05;;;;;;;5.89;55.03;101232.81;5004362;28;20060;-71
2023/04/15 06:46:03;;;;;;;6.40;3.17;;;;;;;5.70;55.50;101231.34;5005845;28;20052;-71
2023/04/15 06:48:29;;;;;;;6.20;3.70;;;;;;;5.75;55.31;101235.63;5006538;28;20585;-70
2023/04/15 06:50:57;;;;;;;7.25;3.53;;;;;;;5.82;55.76;101233.78;5024147;28;20091;-68
2023/04/15 06:53:26;;;;;;;7.90;3.17;;;;;;;5.95;54.82;101235.31;5007162;28;20033;-68
2023/04/15 06:55:52;;;;;;;8.88;3.55;;;;;;;5.91;55.47;101231.06;5007648;28;20049;-69
2023/04/15 06:58:17;;;;;;;5.80;3.30;;;;;;;6.25;54.25;101233.97;5000536;28;20418;-69
2023/04/15 07:00:43;;;;;;;8.20;3.47;;;;;;;5.83;55.84;101238.09;5013192;28;20045;-68
2023/04/15 07:03:10;;;;;;;8.90;2.92;;;;;;;5.47;56.12;101240.31;5010720;28;20034;-67
2023/04/15 07:05:35;;;;;;;10.82;3.67;;;;;;;5.92;55.41;101237.94;5011643;28;20044;-68
2023/04/15 07:08:01;;;;;;;8.35;3.83;;;;;;;5.69;55.61;101234.84;5030943;28;20273;-69
2023/04/15 07:10:26;;;;;;;6.50;3.17;;;;;;;5.70;55.82;101237.38;5012269;28;20536;-68
2023/04/15 07:12:52;;;;;;;9.98;3.20;;;;;;;5.73;55.79;101241.69;5005716;28;20092;-68
2023/04/15 07:15:17;;;;;;;8.68;3.60;;;;;;;5.97;55.03;101243.06;5013853;28;20041;-68
2023/04/15 07:17:43;;;;;;;6.35;3.00;;;;;;;5.94;55.66;101241.38;5027732;28;20406;-68
2023/04/15 07:20:08;;;;;;;4.15;2.58;;;;;;;6.04;55.60;101242.97;5026006;28;20037;-67
2023/04/15 07:22:34;;;;;;;5.90;3.15;;;;;;;6.15;55.12;101236.75;5006281;28;20069;-69
2023/04/15 07:24:59;;;;;;;7.80;3.50;;;;;;;5.84;55.70;101245.84;5000025;28;20709;-68
2023/04/15 07:27:26;;;;;;;7.03;3.35;;;;;;;6.04;56.00;101249.91;5007141;28;20030;-68
2023/04/15 07:29:52;;;;;;;6.78;2.92;;;;;;;6.14;55.61;101254.06;5005479;28;20053;-69
2023/04/15 07:32:17;;;;;;;7.93;3.28;;;;;;;5.71;56.79;101251.25;5008098;28;20551;-69
2023/04/15 07:34:43;;;;;;;6.65;2.85;;;;;;;5.70;57.53;101252.09;5004260;28;20033;-68
2023/04/15 07:37:09;;;;;;;8.90;2.72;;;;;;;6.08;56.16;101249.84;5010724;28;20022;-68
2023/04/15 07:39:36;;;;;;;6.85;2.50;;;;;;;5.61;57.91;101255.66;5005633;28;20050;-69
2023/04/15 07:42:02;;;;;;;7.53;2.95;;;;;;;6.11;56.47;101255.84;5010856;28;20037;-68
2023/04/15 07:44:28;;;;;;;7.30;3.10;;;;;;;5.90;57.64;101260.47;5006934;28;20129;-70
2023/04/15 07:46:54;;;;;;;9.13;2.58;;;;;;;5.58;58.21;101266.94;4988483;28;20124;-69
2023/04/15 07:49:20;;;;;;;7.72;4.13;;;;;;;5.63;58.10;101275.50;5006476;28;20049;-69
2023/04/15 07:51:46;;;;;;;6.22;3.50;;;;;;;5.79;58.12;101264.94;5001575;28;20033;-68
2023/04/15 07:54:11;;;;;;;4.78;2.58;;;;;;;5.28;58.96;101259.53;5010520;28;20069;-70
2023/04/15 07:56:40;;;;;;;11.52;3.28;;;;;;;5.55;58.43;101272.19;5005231;28;20116;-69
2023/04/15 07:59:06;;;;;;;9.32;4.18;;;;;;;5.71;58.10;101265.06;5010720;28;20055;-69
2023/04/15 08:01:31;;;;;;;6.57;3.00;;;;;;;5.91;57.18;101277.75;5008746;28;20029;-70
2023/04/15 08:03:58;;;;;;;8.32;3.08;;;;;;;5.73;58.31;101272.81;5008456;28;21157;-70
2023/04/15 08:06:24;;;;;;;6.82;3.10;;;;;;;5.76;58.48;101283.16;5011206;28;20120;-68
2023/04/15 08:08:49;;;;;;;6.55;2.47;;;;;;;6.00;57.66;101276.78;5001425;28;20045;-69
2023/04/15 08:11:15;;;;;;;7.45;2.90;;;;;;;5.91;57.71;101274.31;5002898;28;20027;-68
2023/04/15 08:13:41;;;;;;;7.63;3.30;;;;;;;5.64;58.24;101282.44;5001423;28;20094;-69
2023/04/15 08:16:21;;;;;;;5.78;2.47;;;;;;;5.97;57.23;101279.38;5012534;28;20029;-68
2023/04/15 08:18:48;;;;;;;6.05;2.85;;;;;;;5.67;58.47;101284.97;5006624;28;20480;-69
2023/04/15 08:21:19;;;;;;;5.47;2.60;;;;;;;5.53;58.81;101284.31;5012467;28;20018;-69
2023/04/15 08:23:48;;;;;;;9.15;2.60;;;;;;;5.88;57.50;101283.84;5004613;28;20044;-68
2023/04/15 08:26:13;;;;;;;6.90;3.05;;;;;;;5.82;58.29;101301.22;5004392;28;20164;-69
2023/04/15 08:28:40;;;;;;;6.43;2.33;;;;;;;5.87;57.42;101294.25;5005007;28;20636;-68
2023/04/15 08:31:06;;;;;;;11.80;2.90;;;;;;;5.94;57.76;101290.69;5013272;28;20029;-68
2023/04/15 08:33:31;;;;;;;7.78;3.00;;;;;;;6.15;56.98;101296.44;5008161;28;20508;-70
2023/04/15 08:35:57;;;;;;;5.93;2.25;;;;;;;6.42;56.47;101296.06;5008686;28;20033;-68
2023/04/15 08:38:22;;;;;;;6.13;2.55;;;;;;;6.32;57.07;101294.47;5012088;28;20074;-68
2023/04/15 08:40:48;;;;;;;8.10;2.50;;;;;;;6.08;56.88;101300.84;5008711;28;20414;-66
2023/04/15 08:43:20;;;;;;;6.63;2.85;;;;;;;5.52;58.34;101295.53;5011101;28;20116;-68
2023/04/15 08:45:47;;;;;;;;;;;;;;;5.71;58.48;101305.69;5004938;28;20344;-68
2023/04/15 08:48:17;;;;;;;4.32;3.00;;;;;;;5.81;58.31;101300.34;5011295;28;20147;-67
2023/04/15 08:50:43;;;;;;;3.53;1.92;;;;;;;5.91;57.84;101302.84;5004459;28;20071;-67
2023/04/15 08:53:10;;;;;;;5.65;2.25;;;;;;;5.85;58.24;101296.84;5008187;28;20033;-68
2023/04/15 08:55:42;;;;;;;6.20;2.05;;;;;;;5.87;57.91;101297.69;4988543;28;20049;-69
2023/04/15 08:58:10;;;;;;;7.10;2.35;;;;;;;5.61;58.79;101300.63;5008442;28;20041;-68
2023/04/15 09:00:36;;;;;;;6.45;2.10;;;;;;;5.86;58.66;101300.31;5006835;28;20046;-68
2023/04/15 09:03:03;;;;;;;4.75;1.70;;;;;;;5.99;58.30;101295.78;5005893;28;20033;-67
2023/04/15 09:05:32;;;;;;;5.82;2.70;;;;;;;5.70;58.54;101304.81;5009490;28;20053;-68
2023/04/15 09:08:00;;;;;;;5.72;2.03;;;;;;;5.95;58.01;101295.00;5000030;28;20136;-68
2023/04/15 09:10:26;;;;;;;2.80;1.77;;;;;;;6.34;56.98;101308.28;4967959;28;20045;-68
2023/04/15 09:12:52;;;;;;;5.03;2.22;;;;;;;6.12;57.22;101312.06;5003607;28;20428;-68
2023/04/15 09:15:18;;;;;;;7.47;1.88;;;;;;;6.05;58.22;101308.69;4990202;28;20563;-69
2023/04/15 09:17:47;;;;;;;4.22;1.50;;;;;;;5.70;58.89;101311.75;5007478;28;20057;-68
2023/04/15 09:20:14;;;;;;;5.80;2.17;;;;;;;5.92;58.01;101320.97;5008035;28;20148;-68
2023/04/15 09:22:41;;;;;;;2.15;1.25;;;;;;;5.81;58.30;101317.66;5005028;28;20026;-68
2023/04/15 09:25:26;;;;;;;3.47;1.85;;;;;;;6.07;57.11;101314.72;4998109;28;20049;-70
2023/04/15 09:27:56;;;;;;;6.70;1.80;;;;;;;5.47;59.07;101315.47;5006949;28;20034;-68
2023/04/15 09:30:22;;;;;;;5.07;1.83;;;;;;;5.48;59.14;101319.81;5007550;28;20044;-68
2023/04/15 09:32:56;;;;;;;4.13;1.27;;;;;;;5.56;58.60;101317.97;5005914;28;20250;-68
2023/04/15 09:35:23;;;;;;;7.25;2.15;;;;;;;5.98;58.47;101320.91;4974461;28;20037;-68
2023/04/15 09:37:50;;;;;;;5.40;1.35;;;;;;;6.11;57.75;101326.78;5005813;28;20033;-67
2023/04/15 09:40:40;;;;;;;5.80;3.22;;;;;;;5.73;59.05;101320.38;5008116;28;20033;-69
2023/04/15 09:43:08;;;;;;;3.92;1.27;;;;;;;5.96;58.43;101322.66;5010622;28;20970;-68
2023/04/15 09:45:35;;;;;;;3.97;1.40;;;;;;;6.36;56.66;101321.25;4998037;28;20033;-68
2023/04/15 09:48:20;;;;;;;2.78;1.23;;;;;;;6.02;58.10;101332.09;5010595;28;20045;-67
2023/04/15 09:50:49;;;;;;;2.10;1.05;;;;;;;6.05;57.63;101327.72;5026383;28;20430;-68
2023/04/15 09:53:22;;;;;;;7.53;1.50;;;;;;;6.11;58.05;101336.31;5017562;28;20418;-69
2023/04/15 09:55:56;;;;;;;4.82;1.50;;;;;;;6.06;57.52;101331.16;5025437;28;20045;-70
2023/04/15 09:58:26;;;;;;;3.45;1.33;;;;;;;5.86;58.67;101344.41;5028259;28;20528;-69
2023/04/15 10:00:56;;;;;;;7.03;1.48;;;;;;;5.83;58.21;101336.66;5023463;28;20495;-69
2023/04/15 10:03:26;;;;;;;3.20;1.27;;;;;;;5.41;59.88;101331.97;5028098;28;20032;-69
2023/04/15 10:05:55;;;;;;;7.38;1.77;;;;;;;5.38;60.10;101336.34;5031250;28;20062;-70
2023/04/15 10:08:23;;;;;;;12.02;1.33;;;;;;;5.75;59.70;101343.66;5005731;28;20059;-69
2023/04/15 10:10:53;;;;;;;8.38;2.53;;;;;;;6.16;58.47;101339.69;5026628;28;20041;-69
2023/04/15 10:13:27;;;;;;;2.95;0.95;;;;;;;5.61;59.47;101352.50;5029278;28;20473;-69
2023/04/15 10:16:20;;;;;;;5.53;1.13;;;;;;;5.75;59.07;101351.44;5026135;28;20049;-69
2023/04/15 10:18:48;;;;;;;3.70;1.67;;;;;;;5.79;58.95;101347.94;5027427;28;20280;-69
2023/04/15 10:21:17;;;;;;;5.68;1.10;;;;;;;5.79;58.82;101351.41;5027077;28;20517;-69
2023/04/15 10:23:44;;;;;;;3.88;0.80;;;;;;;5.95;58.69;101353.78;5026631;28;20055;-69
2023/04/15 10:26:11;;;;;;;9.43;1.50;;;;;;;5.77;59.18;101358.38;5027602;28;20160;-68
2023/04/15 10:28:37;;;;;;;3.10;1.17;;;;;;;5.66;59.05;101355.88;5024099;28;20508;-68
2023/04/15 10:31:04;;;;;;;4.32;1.27;;;;;;;5.56;59.38;101363.78;5024688;28;20043;-69
2023/04/15 10:33:31;;;;;;;7.78;1.60;;;;;;;5.89;58.32;101359.94;5026062;28;20041;-69
2023/04/15 10:35:57;;;;;;;2.47;0.98;;;;;;;5.23;60.53;101360.66;5025450;28;20210;-68
2023/04/15 10:38:32;;;;;;;11.15;1.70;;;;;;;5.88;58.43;101361.69;5024456;28;20036;-69
2023/04/15 10:41:16;;;;;;;5.20;1.63;;;;;;;5.74;59.17;101357.53;5006967;28;20537;-68
2023/04/15 10:43:52;;;;;;;8.13;1.63;;;;;;;5.72;59.60;101360.13;5006580;28;20079;-69
2023/04/15 10:46:24;;;;;;;1.90;1.02;;;;;;;5.90;58.48;101364.22;4989986;28;20308;-69
2023/04/15 10:48:52;;;;;;;4.25;0.93;;;;;;;5.42;59.96;101366.53;5004922;28;20077;-69
2023/04/15 10:51:31;;;;;;;4.63;1.52;;;;;;;5.49;59.84;101368.19;5004429;28;20478;-67
2023/04/15 10:53:58;;;;;;;3.10;1.20;;;;;;;5.55;59.74;101373.31;4997523;28;20049;-67
2023/04/15 10:56:24;;;;;;;3.75;1.40;;;;;;;5.84;58.69;101370.38;5006516;28;20414;-67
2023/04/15 10:58:50;;;;;;;2.45;1.08;;;;;;;5.54;59.34;101371.56;5007236;28;20049;-68
2023/04/15 11:01:15;;;;;;;5.32;1.10;;;;;;;5.80;58.87;101373.03;5003867;28;20187;-68
2023/04/15 11:03:42;;;;;;;7.20;1.17;;;;;;;5.54;59.80;101370.72;4989517;28;20025;-68
2023/04/15 11:06:08;;;;;;;7.15;1.80;;;;;;;5.58;59.57;101381.03;5005706;28;20041;-67
2023/04/15 11:08:55;;;;;;;1.98;0.93;;;;;;;5.24;60.70;101372.78;4997046;28;20033;-70
2023/04/15 11:11:21;;;;;;;5.65;1.17;;;;;;;5.39;60.32;101389.88;5011976;28;20131;-67
2023/04/15 11:13:51;;;;;;;4.10;1.00;;;;;;;5.47;60.30;101388.06;5010263;28;20664;-69
2023/04/15 11:16:18;;;;;;;10.55;1.58;;;;;;;5.20;60.79;101389.22;5022223;28;20028;-70
2023/04/15 11:18:53;;;;;;;9.95;1.77;;;;;;;5.47;60.22;101385.50;5008828;28;20044;-67
2023/04/15 11:21:24;;;;;;;4.50;1.63;;;;;;;5.35;60.23;101386.47;5024758;28;20401;-68
2023/04/15 11:23:50;;;;;;;7.80;0.90;;;;;;;5.58;59.37;101383.63;5024618;28;20045;-67
2023/04/15 11:26:15;;;;;;;6.13;1.10;;;;;;;5.44;60.31;101383.78;5022365;28;20250;-68
2023/04/15 11:28:44;;;;;;;4.32;1.10;;;;;;;5.43;60.25;101383.78;5024728;28;20112;-68
2023/04/15 11:31:15;;;;;;;8.45;1.30;;;;;;;5.58;60.23;101393.16;5016723;28;20086;-68